sensor_id;sensor_type;location;lat;lon;timestamp;temperature;humidity
2571;DHT22;1295;51.130;6.732;2024-03-23T00:55:37;13.00;99.90
2571;DHT22;1295;51.130;6.732;2024-03-23T00:58:03;13.10;99.90
2571;DHT22;1295;51.130;6.732;2024-03-23T01:00:29;13.10;99.90
2571;DHT22;1295;51.130;6.732;2024-03-23T01:02:55;13.00;99.90
2571;DHT22;1295;51.130;6.732;2024-03-23T01:05:21;13.10;99.90
2571;DHT22;1295;51.130;6.732;2024-03-23T01:07:47;13.00;99.90
2571;DHT22;1295;51.130;6.732;2024-03-23T01:10:12;13.10;99.90
2571;DHT22;1295;51.130;6.732;2024-03-23T01:12:38;13.10;99.90
2571;DHT22;1295;51.130;6.732;2024-03-23T01:15:05;13.10;99.90
2571;DHT22;1295;51.130;6.732;2024-03-23T01:17:30;13.00;99.90
2571;DHT22;1295;51.130;6.732;2024-03-23T01:19:56;13.00;99.90
2571;DHT22;1295;51.130;6.732;2024-03-23T01:22:21;13.00;99.90
2571;DHT22;1295;51.130;6.732;2024-03-23T01:24:47;13.00;99.90
2571;DHT22;1295;51.130;6.732;2024-03-23T01:27:13;13.00;99.90
2571;DHT22;1295;51.130;6.732;2024-03-23T01:29:38;13.00;99.90
2571;DHT22;1295;51.130;6.732;2024-03-23T01:32:05;13.00;99.90
2571;DHT22;1295;51.130;6.732;2024-03-23T01:34:30;13.00;99.90
2571;DHT22;1295;51.130;6.732;2024-03-23T01:37:00;13.00;99.90
2571;DHT22;1295;51.130;6.732;2024-03-23T01:39:26;13.00;99.90
2571;DHT22;1295;51.130;6.732;2024-03-23T01:41:51;13.00;99.90
2571;DHT22;1295;51.130;6.732;2024-03-23T01:44:17;12.90;99.90
2571;DHT22;1295;51.130;6.732;2024-03-23T01:46:44;12.80;99.90
2571;DHT22;1295;51.130;6.732;2024-03-23T01:49:09;12.80;99.90
2571;DHT22;1295;51.130;6.732;2024-03-23T01:51:35;12.70;99.90
2571;DHT22;1295;51.130;6.732;2024-03-23T01:54:01;12.70;99.90
2571;DHT22;1295;51.130;6.732;2024-03-23T01:56:27;12.70;99.90
2571;DHT22;1295;51.130;6.732;2024-03-23T01:58:52;12.70;99.90
2571;DHT22;1295;51.130;6.732;2024-03-23T02:01:19;12.70;99.90
2571;DHT22;1295;51.130;6.732;2024-03-23T02:03:44;12.70;99.90
2571;DHT22;1295;51.130;6.732;2024-03-23T02:06:11;12.70;99.90
2571;DHT22;1295;51.130;6.732;2024-03-23T02:08:37;12.70;99.90
2571;DHT22;1295;51.130;6.732;2024-03-23T02:11:03;12.70;99.90
2571;DHT22;1295;51.130;6.732;2024-03-23T02:13:29;12.70;99.90
2571;DHT22;1295;51.130;6.732;2024-03-23T02:15:56;12.70;99.90
2571;DHT22;1295;51.130;6.732;2024-03-23T02:18:21;12.70;99.90
2571;DHT22;1295;51.130;6.732;2024-03-23T02:20:47;12.70;99.90
2571;DHT22;1295;51.130;6.732;2024-03-23T02:23:13;12.80;99.90
2571;DHT22;1295;51.130;6.732;2024-03-23T02:25:39;12.70;99.90
2571;DHT22;1295;51.130;6.732;2024-03-23T02:28:05;12.70;99.90
2571;DHT22;1295;51.130;6.732;2024-03-23T02:30:30;12.80;99.90
2571;DHT22;1295;51.130;6.732;2024-03-23T02:32:56;12.70;99.90
2571;DHT22;1295;51.130;6.732;2024-03-23T02:35:22;12.70;99.90
2571;DHT22;1295;51.130;6.732;2024-03-23T02:37:47;12.70;99.90
2571;DHT22;1295;51.130;6.732;2024-03-23T02:40:15;12.70;99.90
2571;DHT22;1295;51.130;6.732;2024-03-23T02:42:40;12.70;99.90
2571;DHT22;1295;51.130;6.732;2024-03-23T02:45:05;12.70;99.90
2571;DHT22;1295;51.130;6.732;2024-03-23T02:47:31;12.60;99.90
2571;DHT22;1295;51.130;6.732;2024-03-23T02:49:57;12.60;99.90
2571;DHT22;1295;51.130;6.732;2024-03-23T02:52:22;12.60;99.90
2571;DHT22;1295;51.130;6.732;2024-03-23T02:54:48;12.60;99.90
2571;DHT22;1295;51.130;6.732;2024-03-23T02:57:14;12.10;99.90
2571;DHT22;1295;51.130;6.732;2024-03-23T02:59:39;12.50;99.90
2571;DHT22;1295;51.130;6.732;2024-03-23T03:02:05;12.50;99.90
2571;DHT22;1295;51.130;6.732;2024-03-23T03:04:31;12.50;99.90
2571;DHT22;1295;51.130;6.732;2024-03-23T03:06:57;12.50;99.90
2571;DHT22;1295;51.130;6.732;2024-03-23T03:09:23;12.50;99.90
2571;DHT22;1295;51.130;6.732;2024-03-23T03:11:49;12.50;99.90
2571;DHT22;1295;51.130;6.732;2024-03-23T03:14:15;12.50;99.90
2571;DHT22;1295;51.130;6.732;2024-03-23T03:16:41;12.50;99.90
2571;DHT22;1295;51.130;6.732;2024-03-23T03:19:07;12.50;99.90
2571;DHT22;1295;51.130;6.732;2024-03-23T03:21:32;12.50;99.90
2571;DHT22;1295;51.130;6.732;2024-03-23T03:24:09;12.50;99.90
2571;DHT22;1295;51.130;6.732;2024-03-23T03:26:34;12.50;99.90
2571;DHT22;1295;51.130;6.732;2024-03-23T03:29:00;12.50;99.90
2571;DHT22;1295;51.130;6.732;2024-03-23T03:31:26;12.40;99.90
2571;DHT22;1295;51.130;6.732;2024-03-23T03:33:52;12.40;99.90
2571;DHT22;1295;51.130;6.732;2024-03-23T03:36:18;12.40;99.90
2571;DHT22;1295;51.130;6.732;2024-03-23T03:38:43;12.40;99.90
2571;DHT22;1295;51.130;6.732;2024-03-23T03:41:09;12.40;99.90
2571;DHT22;1295;51.130;6.732;2024-03-23T03:43:35;12.30;99.90
2571;DHT22;1295;51.130;6.732;2024-03-23T03:46:01;12.30;99.90
2571;DHT22;1295;51.130;6.732;2024-03-23T03:48:27;12.30;99.90
2571;DHT22;1295;51.130;6.732;2024-03-23T03:50:53;12.10;99.90
2571;DHT22;1295;51.130;6.732;2024-03-23T03:53:18;12.20;99.90
2571;DHT22;1295;51.130;6.732;2024-03-23T03:55:44;12.20;99.90
2571;DHT22;1295;51.130;6.732;2024-03-23T03:58:09;12.10;99.90
2571;DHT22;1295;51.130;6.732;2024-03-23T04:00:35;12.20;99.90
2571;DHT22;1295;51.130;6.732;2024-03-23T04:03:01;12.20;99.90
2571;DHT22;1295;51.130;6.732;2024-03-23T04:05:26;11.90;99.90
2571;DHT22;1295;51.130;6.732;2024-03-23T04:07:52;12.00;99.90
2571;DHT22;1295;51.130;6.732;2024-03-23T04:10:18;11.70;99.90
2571;DHT22;1295;51.130;6.732;2024-03-23T04:12:44;11.70;99.90
2571;DHT22;1295;51.130;6.732;2024-03-23T04:15:10;12.00;99.90
2571;DHT22;1295;51.130;6.732;2024-03-23T04:17:36;12.10;99.90
2571;DHT22;1295;51.130;6.732;2024-03-23T04:20:02;12.10;99.90
2571;DHT22;1295;51.130;6.732;2024-03-23T04:22:28;12.10;99.90
2571;DHT22;1295;51.130;6.732;2024-03-23T04:24:55;11.80;99.90
2571;DHT22;1295;51.130;6.732;2024-03-23T04:27:21;11.80;99.90
2571;DHT22;1295;51.130;6.732;2024-03-23T04:29:47;11.60;99.90
2571;DHT22;1295;51.130;6.732;2024-03-23T04:32:13;11.40;99.90
2571;DHT22;1295;51.130;6.732;2024-03-23T04:34:38;11.40;99.90
2571;DHT22;1295;51.130;6.732;2024-03-23T04:37:04;11.80;99.90
2571;DHT22;1295;51.130;6.732;2024-03-23T04:39:30;11.90;99.90
2571;DHT22;1295;51.130;6.732;2024-03-23T04:41:58;11.40;99.90
2571;DHT22;1295;51.130;6.732;2024-03-23T04:44:24;10.10;99.90
2571;DHT22;1295;51.130;6.732;2024-03-23T04:46:49;10.70;99.90
2571;DHT22;1295;51.130;6.732;2024-03-23T04:49:15;10.50;99.90
2571;DHT22;1295;51.130;6.732;2024-03-23T04:51:41;11.10;99.90
2571;DHT22;1295;51.130;6.732;2024-03-23T04:54:06;11.20;99.90
2571;DHT22;1295;51.130;6.732;2024-03-23T04:56:32;9.90;99.90
2571;DHT22;1295;51.130;6.732;2024-03-23T04:58:58;10.40;99.90
2571;DHT22;1295;51.130;6.732;2024-03-23T05:01:24;10.40;99.90
2571;DHT22;1295;51.130;6.732;2024-03-23T05:03:49;11.00;99.90
2571;DHT22;1295;51.130;6.732;2024-03-23T05:06:15;10.80;99.90
2571;DHT22;1295;51.130;6.732;2024-03-23T05:08:40;10.40;99.90
2571;DHT22;1295;51.130;6.732;2024-03-23T05:11:06;10.90;99.90
2571;DHT22;1295;51.130;6.732;2024-03-23T05:13:32;10.90;99.90
2571;DHT22;1295;51.130;6.732;2024-03-23T05:15:57;9.80;99.90
2571;DHT22;1295;51.130;6.732;2024-03-23T05:18:23;9.20;99.90
2571;DHT22;1295;51.130;6.732;2024-03-23T05:20:49;8.90;99.90
2571;DHT22;1295;51.130;6.732;2024-03-23T05:23:14;9.20;99.90
2571;DHT22;1295;51.130;6.732;2024-03-23T05:25:40;9.30;99.90
2571;DHT22;1295;51.130;6.732;2024-03-23T05:28:06;9.90;99.90
2571;DHT22;1295;51.130;6.732;2024-03-23T05:30:31;10.40;99.90
2571;DHT22;1295;51.130;6.732;2024-03-23T05:32:57;9.60;99.90
2571;DHT22;1295;51.130;6.732;2024-03-23T05:35:22;9.30;99.90
2571;DHT22;1295;51.130;6.732;2024-03-23T05:37:48;10.10;99.90
2571;DHT22;1295;51.130;6.732;2024-03-23T05:40:14;9.50;99.90
2571;DHT22;1295;51.130;6.732;2024-03-23T05:42:39;8.60;99.90
2571;DHT22;1295;51.130;6.732;2024-03-23T05:45:06;8.90;99.90
2571;DHT22;1295;51.130;6.732;2024-03-23T05:47:32;9.20;99.90
2571;DHT22;1295;51.130;6.732;2024-03-23T05:49:57;9.50;99.90
2571;DHT22;1295;51.130;6.732;2024-03-23T05:52:23;9.80;99.90
2571;DHT22;1295;51.130;6.732;2024-03-23T05:54:49;9.80;99.90
2571;DHT22;1295;51.130;6.732;2024-03-23T05:57:14;9.60;99.90
2571;DHT22;1295;51.130;6.732;2024-03-23T05:59:41;9.10;99.90
2571;DHT22;1295;51.130;6.732;2024-03-23T06:02:06;9.10;99.90
2571;DHT22;1295;51.130;6.732;2024-03-23T06:04:32;9.00;99.90
2571;DHT22;1295;51.130;6.732;2024-03-23T06:06:58;8.90;99.90
2571;DHT22;1295;51.130;6.732;2024-03-23T06:09:23;9.30;99.90
2571;DHT22;1295;51.130;6.732;2024-03-23T06:11:49;9.00;99.90
2571;DHT22;1295;51.130;6.732;2024-03-23T06:14:15;8.60;99.90
2571;DHT22;1295;51.130;6.732;2024-03-23T06:16:40;8.30;99.90
2571;DHT22;1295;51.130;6.732;2024-03-23T06:19:06;7.90;99.90
2571;DHT22;1295;51.130;6.732;2024-03-23T06:21:32;7.90;99.90
2571;DHT22;1295;51.130;6.732;2024-03-23T06:23:57;8.80;99.90
2571;DHT22;1295;51.130;6.732;2024-03-23T06:26:23;9.10;99.90
2571;DHT22;1295;51.130;6.732;2024-03-23T06:28:49;9.60;99.90
2571;DHT22;1295;51.130;6.732;2024-03-23T06:31:14;8.60;99.90
2571;DHT22;1295;51.130;6.732;2024-03-23T06:33:41;9.00;99.90
2571;DHT22;1295;51.130;6.732;2024-03-23T06:36:07;9.00;99.90
2571;DHT22;1295;51.130;6.732;2024-03-23T06:38:32;8.10;99.90
2571;DHT22;1295;51.130;6.732;2024-03-23T06:40:58;8.10;99.90
2571;DHT22;1295;51.130;6.732;2024-03-23T06:43:23;7.80;99.90
2571;DHT22;1295;51.130;6.732;2024-03-23T06:45:52;8.00;99.90
2571;DHT22;1295;51.130;6.732;2024-03-23T06:48:17;8.00;99.90
2571;DHT22;1295;51.130;6.732;2024-03-23T06:50:43;8.70;99.90
2571;DHT22;1295;51.130;6.732;2024-03-23T06:53:09;8.50;99.90
2571;DHT22;1295;51.130;6.732;2024-03-23T06:55:34;8.40;99.90
2571;DHT22;1295;51.130;6.732;2024-03-23T06:58:00;8.30;99.90
2571;DHT22;1295;51.130;6.732;2024-03-23T07:00:26;8.10;99.90
2571;DHT22;1295;51.130;6.732;2024-03-23T07:02:51;8.20;99.90
2571;DHT22;1295;51.130;6.732;2024-03-23T07:05:17;8.30;99.90
2571;DHT22;1295;51.130;6.732;2024-03-23T07:07:42;8.30;99.90
2571;DHT22;1295;51.130;6.732;2024-03-23T07:10:08;8.50;99.90
2571;DHT22;1295;51.130;6.732;2024-03-23T07:12:35;8.40;99.90
2571;DHT22;1295;51.130;6.732;2024-03-23T07:15:01;9.30;99.90
2571;DHT22;1295;51.130;6.732;2024-03-23T07:17:27;9.30;99.90
2571;DHT22;1295;51.130;6.732;2024-03-23T07:19:52;8.70;99.90
2571;DHT22;1295;51.130;6.732;2024-03-23T07:22:18;8.70;99.90
2571;DHT22;1295;51.130;6.732;2024-03-23T07:24:43;8.80;99.90
2571;DHT22;1295;51.130;6.732;2024-03-23T07:27:10;8.50;99.90
2571;DHT22;1295;51.130;6.732;2024-03-23T07:29:36;9.10;99.90
2571;DHT22;1295;51.130;6.732;2024-03-23T07:32:08;8.80;99.90
2571;DHT22;1295;51.130;6.732;2024-03-23T07:34:44;8.80;99.90
2571;DHT22;1295;51.130;6.732;2024-03-23T07:37:10;8.90;99.90
2571;DHT22;1295;51.130;6.732;2024-03-23T07:39:36;8.80;99.90
2571;DHT22;1295;51.130;6.732;2024-03-23T07:42:02;8.70;99.90
2571;DHT22;1295;51.130;6.732;2024-03-23T07:44:28;8.90;99.90
2571;DHT22;1295;51.130;6.732;2024-03-23T07:46:54;8.90;99.90
2571;DHT22;1295;51.130;6.732;2024-03-23T07:49:19;9.20;99.90
2571;DHT22;1295;51.130;6.732;2024-03-23T07:51:45;9.10;99.90
2571;DHT22;1295;51.130;6.732;2024-03-23T07:54:11;9.20;99.90
2571;DHT22;1295;51.130;6.732;2024-03-23T07:56:36;9.60;99.90
2571;DHT22;1295;51.130;6.732;2024-03-23T07:59:03;9.40;99.90
2571;DHT22;1295;51.130;6.732;2024-03-23T08:01:28;9.40;99.90
2571;DHT22;1295;51.130;6.732;2024-03-23T08:03:54;9.60;99.90
2571;DHT22;1295;51.130;6.732;2024-03-23T08:06:20;10.40;99.90
2571;DHT22;1295;51.130;6.732;2024-03-23T08:08:46;10.30;99.90
2571;DHT22;1295;51.130;6.732;2024-03-23T08:11:12;10.40;99.90
2571;DHT22;1295;51.130;6.732;2024-03-23T08:13:39;10.50;99.90
2571;DHT22;1295;51.130;6.732;2024-03-23T08:16:04;10.80;99.90
2571;DHT22;1295;51.130;6.732;2024-03-23T08:18:30;11.10;99.90
2571;DHT22;1295;51.130;6.732;2024-03-23T08:20:58;10.80;99.90
2571;DHT22;1295;51.130;6.732;2024-03-23T08:23:25;11.60;99.90
2571;DHT22;1295;51.130;6.732;2024-03-23T08:25:50;11.60;99.90
2571;DHT22;1295;51.130;6.732;2024-03-23T08:28:16;11.20;99.90
2571;DHT22;1295;51.130;6.732;2024-03-23T08:30:41;11.60;99.90
2571;DHT22;1295;51.130;6.732;2024-03-23T08:33:07;11.10;99.90
2571;DHT22;1295;51.130;6.732;2024-03-23T08:35:33;11.20;99.90
2571;DHT22;1295;51.130;6.732;2024-03-23T08:37:58;11.10;99.90
2571;DHT22;1295;51.130;6.732;2024-03-23T08:40:24;11.60;99.90
2571;DHT22;1295;51.130;6.732;2024-03-23T08:42:57;12.10;99.90
2571;DHT22;1295;51.130;6.732;2024-03-23T08:45:24;12.10;99.90
2571;DHT22;1295;51.130;6.732;2024-03-23T08:47:49;12.30;99.90
2571;DHT22;1295;51.130;6.732;2024-03-23T08:50:14;12.20;99.90
2571;DHT22;1295;51.130;6.732;2024-03-23T08:52:40;11.70;99.90
2571;DHT22;1295;51.130;6.732;2024-03-23T08:55:07;11.60;99.90
2571;DHT22;1295;51.130;6.732;2024-03-23T08:57:33;11.50;99.90
2571;DHT22;1295;51.130;6.732;2024-03-23T08:59:59;11.40;99.90
2571;DHT22;1295;51.130;6.732;2024-03-23T09:02:25;11.40;99.90
2571;DHT22;1295;51.130;6.732;2024-03-23T09:04:50;10.90;99.90
2571;DHT22;1295;51.130;6.732;2024-03-23T09:07:16;10.90;99.90
2571;DHT22;1295;51.130;6.732;2024-03-23T09:09:42;11.20;99.90
2571;DHT22;1295;51.130;6.732;2024-03-23T09:12:07;11.10;99.90
2571;DHT22;1295;51.130;6.732;2024-03-23T09:14:33;10.70;99.90
2571;DHT22;1295;51.130;6.732;2024-03-23T09:16:59;11.40;99.90
2571;DHT22;1295;51.130;6.732;2024-03-23T09:19:28;11.40;99.90
2571;DHT22;1295;51.130;6.732;2024-03-23T09:21:53;12.10;99.90
2571;DHT22;1295;51.130;6.732;2024-03-23T09:24:19;12.10;99.90
2571;DHT22;1295;51.130;6.732;2024-03-23T09:26:45;12.20;99.90
2571;DHT22;1295;51.130;6.732;2024-03-23T09:29:11;12.20;99.90
2571;DHT22;1295;51.130;6.732;2024-03-23T09:31:37;11.50;99.90
2571;DHT22;1295;51.130;6.732;2024-03-23T09:34:03;11.50;99.90
2571;DHT22;1295;51.130;6.732;2024-03-23T09:36:28;11.20;99.90
2571;DHT22;1295;51.130;6.732;2024-03-23T09:38:54;11.30;99.90
2571;DHT22;1295;51.130;6.732;2024-03-23T09:41:20;11.40;99.90
2571;DHT22;1295;51.130;6.732;2024-03-23T09:43:45;11.40;99.90
2571;DHT22;1295;51.130;6.732;2024-03-23T09:46:11;11.20;99.90
2571;DHT22;1295;51.130;6.732;2024-03-23T09:48:37;11.20;99.90
2571;DHT22;1295;51.130;6.732;2024-03-23T09:51:03;11.10;99.90
2571;DHT22;1295;51.130;6.732;2024-03-23T09:53:28;11.20;99.90
2571;DHT22;1295;51.130;6.732;2024-03-23T09:55:54;11.10;99.90
2571;DHT22;1295;51.130;6.732;2024-03-23T09:58:20;11.20;99.90
2571;DHT22;1295;51.130;6.732;2024-03-23T10:00:45;11.30;99.90
2571;DHT22;1295;51.130;6.732;2024-03-23T10:03:11;11.70;99.90
2571;DHT22;1295;51.130;6.732;2024-03-23T10:05:37;12.30;99.90
2571;DHT22;1295;51.130;6.732;2024-03-23T10:08:18;12.50;99.90
2571;DHT22;1295;51.130;6.732;2024-03-23T10:10:44;12.50;99.90
2571;DHT22;1295;51.130;6.732;2024-03-23T10:13:10;12.40;99.90
2571;DHT22;1295;51.130;6.732;2024-03-23T10:15:35;12.70;99.90
2571;DHT22;1295;51.130;6.732;2024-03-23T10:20:34;12.10;99.90
2571;DHT22;1295;51.130;6.732;2024-03-23T10:23:00;11.80;99.90
2571;DHT22;1295;51.130;6.732;2024-03-23T10:25:26;11.30;99.90
2571;DHT22;1295;51.130;6.732;2024-03-23T10:27:58;11.30;99.90
2571;DHT22;1295;51.130;6.732;2024-03-23T10:30:23;11.30;99.90
2571;DHT22;1295;51.130;6.732;2024-03-23T10:32:49;12.00;99.90
2571;DHT22;1295;51.130;6.732;2024-03-23T10:35:18;12.30;99.90
2571;DHT22;1295;51.130;6.732;2024-03-23T10:37:44;11.90;99.90
2571;DHT22;1295;51.130;6.732;2024-03-23T10:40:11;12.00;99.90
2571;DHT22;1295;51.130;6.732;2024-03-23T10:42:38;12.00;99.90
2571;DHT22;1295;51.130;6.732;2024-03-23T10:45:04;12.00;99.90
2571;DHT22;1295;51.130;6.732;2024-03-23T10:47:30;11.90;99.90
2571;DHT22;1295;51.130;6.732;2024-03-23T10:49:56;11.70;99.90
2571;DHT22;1295;51.130;6.732;2024-03-23T10:52:22;11.70;99.90
2571;DHT22;1295;51.130;6.732;2024-03-23T10:54:47;11.50;99.90
2571;DHT22;1295;51.130;6.732;2024-03-23T10:57:15;11.40;99.90
2571;DHT22;1295;51.130;6.732;2024-03-23T10:59:40;11.10;99.90
2571;DHT22;1295;51.130;6.732;2024-03-23T11:02:05;10.60;99.90
2571;DHT22;1295;51.130;6.732;2024-03-23T11:04:33;11.00;99.90
2571;DHT22;1295;51.130;6.732;2024-03-23T11:06:58;10.60;99.90
2571;DHT22;1295;51.130;6.732;2024-03-23T11:09:41;10.20;99.90
2571;DHT22;1295;51.130;6.732;2024-03-23T11:15:02;9.40;99.90
2571;DHT22;1295;51.130;6.732;2024-03-23T11:17:27;10.10;99.90
2571;DHT22;1295;51.130;6.732;2024-03-23T11:19:58;10.60;99.90
2571;DHT22;1295;51.130;6.732;2024-03-23T11:24:57;10.50;99.90
2571;DHT22;1295;51.130;6.732;2024-03-23T11:27:22;10.80;99.90
2571;DHT22;1295;51.130;6.732;2024-03-23T11:29:48;10.60;99.90
2571;DHT22;1295;51.130;6.732;2024-03-23T11:32:14;11.20;99.90
2571;DHT22;1295;51.130;6.732;2024-03-23T11:34:40;11.00;99.90
2571;DHT22;1295;51.130;6.732;2024-03-23T11:37:06;11.20;99.90
2571;DHT22;1295;51.130;6.732;2024-03-23T11:39:32;11.20;99.90
2571;DHT22;1295;51.130;6.732;2024-03-23T11:41:58;11.50;99.90
2571;DHT22;1295;51.130;6.732;2024-03-23T11:44:25;11.60;99.90
2571;DHT22;1295;51.130;6.732;2024-03-23T11:46:50;11.70;99.90
2571;DHT22;1295;51.130;6.732;2024-03-23T11:49:22;11.70;99.90
2571;DHT22;1295;51.130;6.732;2024-03-23T11:51:48;12.20;99.90
2571;DHT22;1295;51.130;6.732;2024-03-23T11:54:13;12.30;99.90
2571;DHT22;1295;51.130;6.732;2024-03-23T11:57:11;12.50;99.90
2571;DHT22;1295;51.130;6.732;2024-03-23T11:59:31;12.40;99.90
2571;DHT22;1295;51.130;6.732;2024-03-23T12:01:56;12.40;99.90
2571;DHT22;1295;51.130;6.732;2024-03-23T12:04:27;10.80;99.90
2571;DHT22;1295;51.130;6.732;2024-03-23T12:07:09;10.70;99.90
2571;DHT22;1295;51.130;6.732;2024-03-23T12:09:18;10.40;99.90
2571;DHT22;1295;51.130;6.732;2024-03-23T12:11:44;10.10;99.90
2571;DHT22;1295;51.130;6.732;2024-03-23T12:14:10;9.70;99.90
2571;DHT22;1295;51.130;6.732;2024-03-23T12:16:36;9.70;99.90
2571;DHT22;1295;51.130;6.732;2024-03-23T12:19:04;9.40;99.90
2571;DHT22;1295;51.130;6.732;2024-03-23T12:21:27;9.90;99.90
2571;DHT22;1295;51.130;6.732;2024-03-23T12:23:53;9.80;99.90
2571;DHT22;1295;51.130;6.732;2024-03-23T12:26:18;9.00;99.90
2571;DHT22;1295;51.130;6.732;2024-03-23T12:28:44;9.70;99.90
2571;DHT22;1295;51.130;6.732;2024-03-23T12:31:10;8.70;99.90
2571;DHT22;1295;51.130;6.732;2024-03-23T12:33:35;9.00;99.90
2571;DHT22;1295;51.130;6.732;2024-03-23T12:36:01;9.50;99.90
2571;DHT22;1295;51.130;6.732;2024-03-23T12:38:27;9.60;99.90
2571;DHT22;1295;51.130;6.732;2024-03-23T12:40:53;9.50;99.90
2571;DHT22;1295;51.130;6.732;2024-03-23T12:43:19;9.40;99.90
2571;DHT22;1295;51.130;6.732;2024-03-23T12:45:46;9.40;99.90
2571;DHT22;1295;51.130;6.732;2024-03-23T12:48:11;9.80;99.90
2571;DHT22;1295;51.130;6.732;2024-03-23T12:50:37;10.30;99.90
2571;DHT22;1295;51.130;6.732;2024-03-23T12:53:03;10.30;99.90
2571;DHT22;1295;51.130;6.732;2024-03-23T12:55:29;10.20;99.90
2571;DHT22;1295;51.130;6.732;2024-03-23T12:57:55;10.50;99.90
2571;DHT22;1295;51.130;6.732;2024-03-23T13:00:20;10.40;99.90
2571;DHT22;1295;51.130;6.732;2024-03-23T13:02:46;11.00;99.90
2571;DHT22;1295;51.130;6.732;2024-03-23T13:05:12;10.80;99.90
2571;DHT22;1295;51.130;6.732;2024-03-23T13:07:37;11.00;99.90
2571;DHT22;1295;51.130;6.732;2024-03-23T13:10:05;11.00;99.90
2571;DHT22;1295;51.130;6.732;2024-03-23T13:12:31;11.00;99.90
2571;DHT22;1295;51.130;6.732;2024-03-23T13:14:56;11.50;99.90
2571;DHT22;1295;51.130;6.732;2024-03-23T13:17:22;11.80;99.90
2571;DHT22;1295;51.130;6.732;2024-03-23T13:19:47;11.90;99.90
2571;DHT22;1295;51.130;6.732;2024-03-23T13:22:13;11.70;99.90
2571;DHT22;1295;51.130;6.732;2024-03-23T13:24:38;11.60;99.90
2571;DHT22;1295;51.130;6.732;2024-03-23T13:27:04;11.60;99.90
2571;DHT22;1295;51.130;6.732;2024-03-23T13:29:30;11.40;99.90
2571;DHT22;1295;51.130;6.732;2024-03-23T13:31:56;11.20;99.90
2571;DHT22;1295;51.130;6.732;2024-03-23T13:34:22;11.30;99.90
2571;DHT22;1295;51.130;6.732;2024-03-23T13:36:48;11.30;99.90
2571;DHT22;1295;51.130;6.732;2024-03-23T13:39:14;11.30;99.90
2571;DHT22;1295;51.130;6.732;2024-03-23T13:41:47;11.30;99.90
2571;DHT22;1295;51.130;6.732;2024-03-23T13:44:13;11.30;99.90
2571;DHT22;1295;51.130;6.732;2024-03-23T13:46:39;11.00;99.90
2571;DHT22;1295;51.130;6.732;2024-03-23T13:49:04;10.50;99.90
2571;DHT22;1295;51.130;6.732;2024-03-23T13:51:30;10.70;99.90
2571;DHT22;1295;51.130;6.732;2024-03-23T13:53:56;11.00;99.90
2571;DHT22;1295;51.130;6.732;2024-03-23T13:56:23;10.80;99.90
2571;DHT22;1295;51.130;6.732;2024-03-23T13:58:48;10.30;99.90
2571;DHT22;1295;51.130;6.732;2024-03-23T14:01:15;9.80;99.90
2571;DHT22;1295;51.130;6.732;2024-03-23T14:03:41;10.50;99.90
2571;DHT22;1295;51.130;6.732;2024-03-23T14:06:06;10.50;99.90
2571;DHT22;1295;51.130;6.732;2024-03-23T14:08:32;10.70;99.90
2571;DHT22;1295;51.130;6.732;2024-03-23T14:10:58;11.40;99.90
2571;DHT22;1295;51.130;6.732;2024-03-23T14:13:24;11.40;99.90
2571;DHT22;1295;51.130;6.732;2024-03-23T14:15:53;11.20;99.90
2571;DHT22;1295;51.130;6.732;2024-03-23T14:18:19;10.80;99.90
2571;DHT22;1295;51.130;6.732;2024-03-23T14:20:45;11.20;99.90
2571;DHT22;1295;51.130;6.732;2024-03-23T14:23:10;10.60;99.90
2571;DHT22;1295;51.130;6.732;2024-03-23T14:25:40;10.80;99.90
2571;DHT22;1295;51.130;6.732;2024-03-23T14:28:05;10.80;99.90
2571;DHT22;1295;51.130;6.732;2024-03-23T14:30:31;10.50;99.90
2571;DHT22;1295;51.130;6.732;2024-03-23T14:32:57;10.90;99.90
2571;DHT22;1295;51.130;6.732;2024-03-23T14:35:22;10.50;99.90
2571;DHT22;1295;51.130;6.732;2024-03-23T14:37:48;10.40;99.90
2571;DHT22;1295;51.130;6.732;2024-03-23T14:40:14;10.70;99.90
2571;DHT22;1295;51.130;6.732;2024-03-23T14:42:39;10.90;99.90
2571;DHT22;1295;51.130;6.732;2024-03-23T14:45:06;11.00;99.90
2571;DHT22;1295;51.130;6.732;2024-03-23T14:47:32;10.20;99.90
2571;DHT22;1295;51.130;6.732;2024-03-23T14:49:57;10.40;99.90
2571;DHT22;1295;51.130;6.732;2024-03-23T14:52:23;10.50;99.90
2571;DHT22;1295;51.130;6.732;2024-03-23T14:54:48;10.30;99.90
2571;DHT22;1295;51.130;6.732;2024-03-23T14:57:14;10.50;99.90
2571;DHT22;1295;51.130;6.732;2024-03-23T14:59:40;10.70;99.90
2571;DHT22;1295;51.130;6.732;2024-03-23T15:02:07;9.90;99.90
2571;DHT22;1295;51.130;6.732;2024-03-23T15:04:32;10.50;99.90
2571;DHT22;1295;51.130;6.732;2024-03-23T15:06:58;10.70;99.90
2571;DHT22;1295;51.130;6.732;2024-03-23T15:09:23;11.00;99.90
2571;DHT22;1295;51.130;6.732;2024-03-23T15:11:49;10.30;99.90
2571;DHT22;1295;51.130;6.732;2024-03-23T15:14:15;9.70;99.90
2571;DHT22;1295;51.130;6.732;2024-03-23T15:16:41;9.70;99.90
2571;DHT22;1295;51.130;6.732;2024-03-23T15:19:07;9.80;99.90
2571;DHT22;1295;51.130;6.732;2024-03-23T15:21:33;9.00;99.90
2571;DHT22;1295;51.130;6.732;2024-03-23T15:23:59;9.00;99.90
2571;DHT22;1295;51.130;6.732;2024-03-23T15:26:24;9.70;99.90
2571;DHT22;1295;51.130;6.732;2024-03-23T15:28:59;9.80;99.90
2571;DHT22;1295;51.130;6.732;2024-03-23T15:31:39;9.80;99.90
2571;DHT22;1295;51.130;6.732;2024-03-23T15:34:05;9.60;99.90
2571;DHT22;1295;51.130;6.732;2024-03-23T15:36:30;9.80;99.90
2571;DHT22;1295;51.130;6.732;2024-03-23T15:38:56;9.80;99.90
2571;DHT22;1295;51.130;6.732;2024-03-23T15:41:22;10.30;99.90
2571;DHT22;1295;51.130;6.732;2024-03-23T15:43:49;10.30;99.90
2571;DHT22;1295;51.130;6.732;2024-03-23T15:46:15;11.00;99.90
2571;DHT22;1295;51.130;6.732;2024-03-23T15:48:41;10.90;99.90
2571;DHT22;1295;51.130;6.732;2024-03-23T15:51:06;10.80;99.90
2571;DHT22;1295;51.130;6.732;2024-03-23T15:53:32;9.90;99.90
2571;DHT22;1295;51.130;6.732;2024-03-23T15:56:00;10.20;99.90
2571;DHT22;1295;51.130;6.732;2024-03-23T15:58:25;10.20;99.90
2571;DHT22;1295;51.130;6.732;2024-03-23T16:00:56;10.10;99.90
2571;DHT22;1295;51.130;6.732;2024-03-23T16:03:21;9.70;99.90
2571;DHT22;1295;51.130;6.732;2024-03-23T16:05:55;9.80;99.90
2571;DHT22;1295;51.130;6.732;2024-03-23T16:08:20;9.80;99.90
2571;DHT22;1295;51.130;6.732;2024-03-23T16:10:46;9.50;99.90
2571;DHT22;1295;51.130;6.732;2024-03-23T16:13:12;9.10;99.90
2571;DHT22;1295;51.130;6.732;2024-03-23T16:15:38;9.10;99.90
2571;DHT22;1295;51.130;6.732;2024-03-23T16:18:04;9.10;99.90
2571;DHT22;1295;51.130;6.732;2024-03-23T16:20:29;9.10;99.90
2571;DHT22;1295;51.130;6.732;2024-03-23T16:22:55;9.70;99.90
2571;DHT22;1295;51.130;6.732;2024-03-23T16:25:21;9.90;99.90
2571;DHT22;1295;51.130;6.732;2024-03-23T16:27:46;9.80;99.90
2571;DHT22;1295;51.130;6.732;2024-03-23T16:30:13;10.00;99.90
2571;DHT22;1295;51.130;6.732;2024-03-23T16:32:39;9.70;99.90
2571;DHT22;1295;51.130;6.732;2024-03-23T16:35:10;9.70;99.90
2571;DHT22;1295;51.130;6.732;2024-03-23T16:37:35;9.60;99.90
2571;DHT22;1295;51.130;6.732;2024-03-23T16:40:01;9.50;99.90
2571;DHT22;1295;51.130;6.732;2024-03-23T16:42:27;9.50;99.90
2571;DHT22;1295;51.130;6.732;2024-03-23T16:44:52;9.70;99.90
2571;DHT22;1295;51.130;6.732;2024-03-23T16:47:19;9.50;99.90
2571;DHT22;1295;51.130;6.732;2024-03-23T16:49:45;9.30;99.90
2571;DHT22;1295;51.130;6.732;2024-03-23T16:52:11;9.30;99.90
2571;DHT22;1295;51.130;6.732;2024-03-23T16:54:36;9.30;99.90
2571;DHT22;1295;51.130;6.732;2024-03-23T16:57:03;9.50;99.90
2571;DHT22;1295;51.130;6.732;2024-03-23T16:59:29;9.40;99.90
2571;DHT22;1295;51.130;6.732;2024-03-23T17:01:56;9.00;99.90